sensor_id;sensor_type;location;lat;lon;timestamp;P1;durP1;ratioP1;P2;durP2;ratioP2
77978;SDS011;67169;50.268;8.694;2023-03-04T15:56:30;5.93;;;2.13;;
77978;SDS011;67169;50.268;8.694;2023-03-04T15:59:01;6.25;;;3.22;;
77978;SDS011;67169;50.268;8.694;2023-03-04T16:01:29;4.53;;;1.83;;
77978;SDS011;67169;50.268;8.694;2023-03-04T16:04:44;2.78;;;1.70;;
77978;SDS011;67169;50.268;8.694;2023-03-04T16:07:12;5.20;;;1.95;;
77978;SDS011;67169;50.268;8.694;2023-03-04T16:09:42;3.38;;;1.75;;
77978;SDS011;67169;50.268;8.694;2023-03-04T16:12:09;2.53;;;1.80;;
77978;SDS011;67169;50.268;8.694;2023-03-04T16:14:37;3.70;;;2.08;;
77978;SDS011;67169;50.268;8.694;2023-03-04T16:17:04;3.17;;;2.13;;
77978;SDS011;67169;50.268;8.694;2023-03-04T16:22:00;5.32;;;2.17;;
77978;SDS011;67169;50.268;8.694;2023-03-04T16:24:27;5.95;;;2.08;;
77978;SDS011;67169;50.268;8.694;2023-03-04T16:26:58;4.45;;;2.17;;
77978;SDS011;67169;50.268;8.694;2023-03-04T16:29:24;3.90;;;2.33;;
77978;SDS011;67169;50.268;8.694;2023-03-04T16:31:53;6.72;;;2.92;;
77978;SDS011;67169;50.268;8.694;2023-03-04T16:34:20;5.70;;;3.47;;
77978;SDS011;67169;50.268;8.694;2023-03-04T16:36:46;11.10;;;4.50;;
77978;SDS011;67169;50.268;8.694;2023-03-04T16:39:16;10.55;;;4.95;;
77978;SDS011;67169;50.268;8.694;2023-03-04T16:41:47;10.90;;;6.43;;
77978;SDS011;67169;50.268;8.694;2023-03-04T16:44:14;25.80;;;11.90;;
77978;SDS011;67169;50.268;8.694;2023-03-04T16:46:40;8.30;;;5.28;;
77978;SDS011;67169;50.268;8.694;2023-03-04T16:49:07;6.05;;;3.72;;
77978;SDS011;67169;50.268;8.694;2023-03-04T16:51:35;10.68;;;5.75;;
77978;SDS011;67169;50.268;8.694;2023-03-04T16:54:08;5.95;;;3.90;;
77978;SDS011;67169;50.268;8.694;2023-03-04T16:56:41;7.03;;;4.53;;
77978;SDS011;67169;50.268;8.694;2023-03-04T16:59:08;9.30;;;5.28;;
77978;SDS011;67169;50.268;8.694;2023-03-04T17:01:39;8.75;;;5.18;;
77978;SDS011;67169;50.268;8.694;2023-03-04T17:04:05;5.35;;;3.40;;
77978;SDS011;67169;50.268;8.694;2023-03-04T17:06:32;10.57;;;4.18;;
77978;SDS011;67169;50.268;8.694;2023-03-04T17:09:02;5.80;;;3.10;;
77978;SDS011;67169;50.268;8.694;2023-03-04T17:11:29;7.65;;;4.00;;
77978;SDS011;67169;50.268;8.694;2023-03-04T17:13:57;9.95;;;4.68;;
77978;SDS011;67169;50.268;8.694;2023-03-04T17:16:23;11.43;;;6.15;;
77978;SDS011;67169;50.268;8.694;2023-03-04T17:18:50;11.13;;;5.68;;
77978;SDS011;67169;50.268;8.694;2023-03-04T17:21:18;8.23;;;4.60;;
77978;SDS011;67169;50.268;8.694;2023-03-04T17:23:47;9.05;;;3.78;;
77978;SDS011;67169;50.268;8.694;2023-03-04T17:26:14;9.38;;;4.80;;
77978;SDS011;67169;50.268;8.694;2023-03-04T17:28:44;12.90;;;6.30;;
77978;SDS011;67169;50.268;8.694;2023-03-04T17:31:13;14.70;;;7.53;;
77978;SDS011;67169;50.268;8.694;2023-03-04T17:33:41;9.02;;;5.57;;
77978;SDS011;67169;50.268;8.694;2023-03-04T17:36:09;10.50;;;6.10;;
77978;SDS011;67169;50.268;8.694;2023-03-04T17:38:37;13.85;;;6.53;;
77978;SDS011;67169;50.268;8.694;2023-03-04T17:41:04;14.95;;;7.38;;
77978;SDS011;67169;50.268;8.694;2023-03-04T17:46:01;11.60;;;6.68;;
77978;SDS011;67169;50.268;8.694;2023-03-04T17:48:31;10.13;;;5.10;;
77978;SDS011;67169;50.268;8.694;2023-03-04T17:50:58;15.10;;;6.85;;
77978;SDS011;67169;50.268;8.694;2023-03-04T17:53:25;15.05;;;7.45;;
77978;SDS011;67169;50.268;8.694;2023-03-04T17:55:52;13.65;;;6.63;;
77978;SDS011;67169;50.268;8.694;2023-03-04T17:58:20;21.50;;;7.82;;
77978;SDS011;67169;50.268;8.694;2023-03-04T18:00:47;12.88;;;6.50;;
77978;SDS011;67169;50.268;8.694;2023-03-04T18:03:16;12.25;;;6.32;;
77978;SDS011;67169;50.268;8.694;2023-03-04T18:05:44;15.63;;;5.68;;
77978;SDS011;67169;50.268;8.694;2023-03-04T18:08:10;13.55;;;6.63;;
77978;SDS011;67169;50.268;8.694;2023-03-04T18:10:37;9.23;;;5.72;;
77978;SDS011;67169;50.268;8.694;2023-03-04T18:13:04;9.80;;;5.45;;
77978;SDS011;67169;50.268;8.694;2023-03-04T18:15:30;13.80;;;6.53;;
77978;SDS011;67169;50.268;8.694;2023-03-04T18:17:57;11.40;;;6.68;;
77978;SDS011;67169;50.268;8.694;2023-03-04T18:20:24;8.00;;;4.95;;
77978;SDS011;67169;50.268;8.694;2023-03-04T18:22:52;12.75;;;6.50;;
77978;SDS011;67169;50.268;8.694;2023-03-04T18:25:20;8.90;;;5.65;;
77978;SDS011;67169;50.268;8.694;2023-03-04T18:27:47;8.38;;;5.50;;
77978;SDS011;67169;50.268;8.694;2023-03-04T18:30:14;11.75;;;7.85;;
77978;SDS011;67169;50.268;8.694;2023-03-04T18:32:42;11.95;;;6.70;;
77978;SDS011;67169;50.268;8.694;2023-03-04T18:35:09;12.48;;;6.50;;
77978;SDS011;67169;50.268;8.694;2023-03-04T18:37:36;13.35;;;7.75;;
77978;SDS011;67169;50.268;8.694;2023-03-04T18:40:05;10.05;;;6.15;;
77978;SDS011;67169;50.268;8.694;2023-03-04T18:42:32;12.93;;;5.90;;
77978;SDS011;67169;50.268;8.694;2023-03-04T18:44:59;11.63;;;6.47;;
77978;SDS011;67169;50.268;8.694;2023-03-04T18:47:27;13.43;;;6.50;;
77978;SDS011;67169;50.268;8.694;2023-03-04T18:49:55;15.52;;;5.40;;
77978;SDS011;67169;50.268;8.694;2023-03-04T18:52:23;11.93;;;6.20;;
77978;SDS011;67169;50.268;8.694;2023-03-04T18:54:50;8.82;;;5.68;;
77978;SDS011;67169;50.268;8.694;2023-03-04T18:57:18;10.35;;;6.30;;
77978;SDS011;67169;50.268;8.694;2023-03-04T18:59:46;11.63;;;6.68;;
77978;SDS011;67169;50.268;8.694;2023-03-04T19:02:18;11.05;;;6.85;;
77978;SDS011;67169;50.268;8.694;2023-03-04T19:04:53;9.48;;;6.38;;
77978;SDS011;67169;50.268;8.694;2023-03-04T19:07:24;9.65;;;6.15;;
77978;SDS011;67169;50.268;8.694;2023-03-04T19:09:52;13.70;;;7.20;;
77978;SDS011;67169;50.268;8.694;2023-03-04T19:12:20;13.27;;;7.50;;
77978;SDS011;67169;50.268;8.694;2023-03-04T19:14:48;12.55;;;6.78;;
77978;SDS011;67169;50.268;8.694;2023-03-04T19:17:16;9.80;;;6.70;;
77978;SDS011;67169;50.268;8.694;2023-03-04T19:19:43;14.07;;;7.43;;
77978;SDS011;67169;50.268;8.694;2023-03-04T19:22:10;13.20;;;6.75;;
77978;SDS011;67169;50.268;8.694;2023-03-04T19:24:37;11.93;;;7.47;;
77978;SDS011;67169;50.268;8.694;2023-03-04T19:27:03;12.82;;;7.47;;
77978;SDS011;67169;50.268;8.694;2023-03-04T19:29:32;10.52;;;6.80;;
77978;SDS011;67169;50.268;8.694;2023-03-04T19:34:25;13.30;;;6.68;;
77978;SDS011;67169;50.268;8.694;2023-03-04T19:36:51;11.02;;;7.25;;
77978;SDS011;67169;50.268;8.694;2023-03-04T19:39:18;14.02;;;7.22;;
77978;SDS011;67169;50.268;8.694;2023-03-04T19:41:45;13.10;;;7.30;;
77978;SDS011;67169;50.268;8.694;2023-03-04T19:44:12;16.52;;;7.40;;
77978;SDS011;67169;50.268;8.694;2023-03-04T19:46:40;12.18;;;6.80;;
77978;SDS011;67169;50.268;8.694;2023-03-04T19:49:06;13.23;;;7.18;;
77978;SDS011;67169;50.268;8.694;2023-03-04T19:51:34;13.73;;;6.97;;
77978;SDS011;67169;50.268;8.694;2023-03-04T19:54:01;12.93;;;7.50;;
77978;SDS011;67169;50.268;8.694;2023-03-04T19:56:29;14.57;;;6.75;;
77978;SDS011;67169;50.268;8.694;2023-03-04T19:58:55;14.07;;;7.82;;
77978;SDS011;67169;50.268;8.694;2023-03-04T20:01:23;13.50;;;7.82;;
77978;SDS011;67169;50.268;8.694;2023-03-04T20:03:53;13.68;;;7.88;;
77978;SDS011;67169;50.268;8.694;2023-03-04T20:06:20;10.93;;;6.82;;
77978;SDS011;67169;50.268;8.694;2023-03-04T20:08:48;16.30;;;8.55;;
77978;SDS011;67169;50.268;8.694;2023-03-04T20:11:14;14.93;;;9.10;;
77978;SDS011;67169;50.268;8.694;2023-03-04T20:13:41;14.75;;;7.35;;
77978;SDS011;67169;50.268;8.694;2023-03-04T20:16:08;17.52;;;8.75;;
77978;SDS011;67169;50.268;8.694;2023-03-04T20:18:36;13.00;;;9.35;;
77978;SDS011;67169;50.268;8.694;2023-03-04T20:21:06;13.13;;;7.95;;
77978;SDS011;67169;50.268;8.694;2023-03-04T20:23:33;14.07;;;7.75;;
77978;SDS011;67169;50.268;8.694;2023-03-04T20:26:00;13.93;;;8.05;;
77978;SDS011;67169;50.268;8.694;2023-03-04T20:28:27;11.07;;;6.63;;
77978;SDS011;67169;50.268;8.694;2023-03-04T20:31:07;15.68;;;9.02;;
77978;SDS011;67169;50.268;8.694;2023-03-04T20:33:35;14.63;;;8.20;;
77978;SDS011;67169;50.268;8.694;2023-03-04T20:36:02;13.13;;;8.52;;
77978;SDS011;67169;50.268;8.694;2023-03-04T20:38:31;12.27;;;7.22;;
77978;SDS011;67169;50.268;8.694;2023-03-04T20:40:57;11.55;;;7.07;;
77978;SDS011;67169;50.268;8.694;2023-03-04T20:43:24;13.32;;;6.78;;
77978;SDS011;67169;50.268;8.694;2023-03-04T20:45:52;14.65;;;8.63;;
77978;SDS011;67169;50.268;8.694;2023-03-04T20:48:19;11.63;;;7.55;;
77978;SDS011;67169;50.268;8.694;2023-03-04T20:50:46;16.08;;;8.10;;
77978;SDS011;67169;50.268;8.694;2023-03-04T20:53:13;14.98;;;8.68;;
77978;SDS011;67169;50.268;8.694;2023-03-04T20:55:41;12.68;;;7.63;;
77978;SDS011;67169;50.268;8.694;2023-03-04T20:58:07;15.15;;;9.18;;
77978;SDS011;67169;50.268;8.694;2023-03-04T21:00:34;14.35;;;7.85;;
77978;SDS011;67169;50.268;8.694;2023-03-04T21:03:02;17.30;;;7.32;;
77978;SDS011;67169;50.268;8.694;2023-03-04T21:05:29;15.57;;;8.43;;
77978;SDS011;67169;50.268;8.694;2023-03-04T21:07:56;13.90;;;8.30;;
77978;SDS011;67169;50.268;8.694;2023-03-04T21:10:23;12.75;;;8.73;;
77978;SDS011;67169;50.268;8.694;2023-03-04T21:12:51;18.23;;;9.00;;
77978;SDS011;67169;50.268;8.694;2023-03-04T21:15:18;14.45;;;8.73;;
77978;SDS011;67169;50.268;8.694;2023-03-04T21:17:45;15.93;;;9.23;;
77978;SDS011;67169;50.268;8.694;2023-03-04T21:20:12;16.63;;;8.27;;
77978;SDS011;67169;50.268;8.694;2023-03-04T21:22:40;14.25;;;8.48;;
77978;SDS011;67169;50.268;8.694;2023-03-04T21:25:07;14.95;;;8.30;;
77978;SDS011;67169;50.268;8.694;2023-03-04T21:27:34;17.88;;;9.93;;
77978;SDS011;67169;50.268;8.694;2023-03-04T21:30:08;14.77;;;8.50;;
77978;SDS011;67169;50.268;8.694;2023-03-04T21:32:36;13.77;;;8.38;;
77978;SDS011;67169;50.268;8.694;2023-03-04T21:35:03;12.88;;;7.68;;
77978;SDS011;67169;50.268;8.694;2023-03-04T21:37:30;14.88;;;8.13;;
77978;SDS011;67169;50.268;8.694;2023-03-04T21:39:57;15.20;;;8.70;;
77978;SDS011;67169;50.268;8.694;2023-03-04T21:42:25;14.43;;;8.52;;
77978;SDS011;67169;50.268;8.694;2023-03-04T21:44:52;13.05;;;7.20;;
77978;SDS011;67169;50.268;8.694;2023-03-04T21:47:20;14.77;;;8.98;;
77978;SDS011;67169;50.268;8.694;2023-03-04T21:49:47;16.85;;;8.13;;
77978;SDS011;67169;50.268;8.694;2023-03-04T21:52:14;15.27;;;8.32;;
77978;SDS011;67169;50.268;8.694;2023-03-04T21:54:40;17.10;;;8.65;;
77978;SDS011;67169;50.268;8.694;2023-03-04T21:57:07;14.02;;;8.57;;
